Time;durP1;ratioP1;P1;durP2;ratioP2;P2;SDS_P1;SDS_P2;PMS_P1;PMS_P2;Temp;Humidity;BMP_temperature;BMP_pressure;BME280_temperature;BME280_humidity;BME280_pressure;Samples;Min_cycle;Max_cycle;Signal;HPM_P1;HPM_P2
2022/07/08 00:01:41;;;;;;;4.78;2.67;;;15.30;99.90;;;;;;5020759;28;20073;-71
2022/07/08 00:04:13;;;;;;;3.05;2.30;;;15.30;99.90;;;;;;5004174;28;20091;-71
2022/07/08 00:06:45;;;;;;;6.53;2.67;;;15.30;99.90;;;;;;5022683;28;20037;-71
2022/07/08 00:09:17;;;;;;;2.88;2.55;;;15.30;99.90;;;;;;5015260;28;20117;-70
2022/07/08 00:11:49;;;;;;;4.82;2.67;;;15.40;99.90;;;;;;5012558;28;20113;-71
2022/07/08 00:14:23;;;;;;;3.83;2.60;;;15.40;99.90;;;;;;5012753;28;20454;-71
2022/07/08 00:16:54;;;;;;;2.65;2.45;;;15.50;99.90;;;;;;5020281;28;20042;-71
2022/07/08 00:19:26;;;;;;;4.95;2.72;;;15.50;99.90;;;;;;5023881;28;20038;-71
2022/07/08 00:21:58;;;;;;;3.40;2.83;;;15.40;99.90;;;;;;5020261;28;20049;-70
2022/07/08 00:24:30;;;;;;;4.90;2.67;;;15.40;99.90;;;;;;5005628;28;20045;-71
2022/07/08 00:27:01;;;;;;;3.13;2.90;;;15.40;99.90;;;;;;5024361;28;20053;-71
2022/07/08 00:29:33;;;;;;;3.13;2.83;;;15.40;99.90;;;;;;5018133;28;20053;-71
2022/07/08 00:32:05;;;;;;;3.70;3.17;;;15.40;99.90;;;;;;5011005;28;20050;-71
2022/07/08 00:34:37;;;;;;;4.05;3.05;;;15.40;99.90;;;;;;4997325;28;20506;-71
2022/07/08 00:37:09;;;;;;;3.35;3.00;;;15.40;99.90;;;;;;5020994;28;20033;-71
2022/07/08 00:39:41;;;;;;;5.25;3.15;;;15.40;99.90;;;;;;5023234;28;20109;-71
2022/07/08 00:42:13;;;;;;;3.83;3.13;;;15.40;99.90;;;;;;5021065;28;20057;-70
2022/07/08 00:44:44;;;;;;;3.35;3.05;;;15.40;99.90;;;;;;5015884;28;20046;-71
2022/07/08 00:47:16;;;;;;;4.65;2.92;;;15.30;99.90;;;;;;5020859;28;20042;-71
2022/07/08 00:49:51;;;;;;;4.35;2.92;;;15.30;99.90;;;;;;5020851;28;20589;-71
2022/07/08 00:52:24;;;;;;;4.10;2.92;;;15.30;99.90;;;;;;5010770;28;20056;-71
2022/07/08 00:54:56;;;;;;;3.15;2.67;;;15.30;99.90;;;;;;5014334;28;20046;-71
2022/07/08 00:57:28;;;;;;;3.72;2.67;;;15.20;99.90;;;;;;5023927;28;20037;-70
2022/07/08 01:00:00;;;;;;;6.45;2.83;;;15.20;99.90;;;;;;5023826;28;20061;-71
2022/07/08 01:02:32;;;;;;;4.50;3.08;;;15.20;99.90;;;;;;5020950;28;20037;-71
2022/07/08 01:05:04;;;;;;;3.72;3.03;;;15.20;99.90;;;;;;4992590;28;20069;-71
2022/07/08 01:07:35;;;;;;;4.13;3.38;;;15.20;99.90;;;;;;5021340;28;20038;-71
2022/07/08 01:10:08;;;;;;;4.75;3.28;;;15.20;99.90;;;;;;5013340;28;20107;-71
2022/07/08 01:12:40;;;;;;;5.43;3.25;;;15.20;99.90;;;;;;5011787;28;20657;-71
2022/07/08 01:15:13;;;;;;;3.67;3.20;;;15.20;99.90;;;;;;5012027;28;20052;-72
2022/07/08 01:17:45;;;;;;;;;;;15.20;99.90;;;;;;5021358;28;20073;-71
2022/07/08 01:20:17;;;;;;;4.97;3.10;;;15.20;99.90;;;;;;5002166;28;19921;-71
2022/07/08 01:22:43;;;;;;;4.43;3.20;;;15.20;99.90;;;;;;5001155;28;20049;-71
2022/07/08 01:25:15;;;;;;;3.92;3.22;;;15.20;99.90;;;;;;5016203;28;20506;-71
2022/07/08 01:27:47;;;;;;;7.32;3.13;;;15.20;99.90;;;;;;5022627;28;20096;-71
2022/07/08 01:30:19;;;;;;;3.45;2.90;;;15.20;99.90;;;;;;4979585;28;20054;-71
2022/07/08 01:32:51;;;;;;;5.10;3.80;;;15.30;99.90;;;;;;4994878;28;20938;-71
2022/07/08 01:35:22;;;;;;;3.63;2.80;;;15.30;99.90;;;;;;5013082;28;20046;-71
2022/07/08 01:37:54;;;;;;;4.35;3.70;;;15.20;99.90;;;;;;5022890;28;20042;-71
2022/07/08 01:40:26;;;;;;;3.70;3.40;;;15.30;99.90;;;;;;5019553;28;20065;-71
2022/07/08 01:42:58;;;;;;;3.75;2.63;;;15.30;99.90;;;;;;5004307;28;20053;-71
2022/07/08 01:45:30;;;;;;;3.20;2.95;;;15.20;99.90;;;;;;4986936;28;20045;-71
2022/07/08 01:48:02;;;;;;;3.60;3.30;;;15.20;99.90;;;;;;5021267;28;20050;-71
2022/07/08 01:50:33;;;;;;;4.68;3.13;;;15.30;99.90;;;;;;5010887;28;20045;-70
2022/07/08 01:53:00;;;;;;;3.83;3.00;;;15.30;99.90;;;;;;4994087;28;20042;-70
2022/07/08 01:55:32;;;;;;;3.38;3.08;;;15.30;99.90;;;;;;5013205;28;20037;-71
2022/07/08 01:58:03;;;;;;;3.83;3.40;;;15.30;99.90;;;;;;5026509;28;20046;-71
2022/07/08 02:00:35;;;;;;;5.25;3.20;;;15.30;99.90;;;;;;5024173;28;20038;-71
2022/07/08 02:03:07;;;;;;;4.10;3.70;;;15.30;99.90;;;;;;5008554;28;20049;-71
2022/07/08 02:05:39;;;;;;;4.65;3.30;;;15.20;99.90;;;;;;5001398;28;20045;-70
2022/07/08 02:08:11;;;;;;;3.97;3.60;;;15.20;99.90;;;;;;5023073;28;20561;-71
2022/07/08 02:13:33;;;;;;;6.20;2.10;;;15.30;99.90;;;;;;5015944;28;20046;-70
2022/07/08 02:16:00;;;;;;;4.18;1.80;;;15.20;99.90;;;;;;5014116;28;20049;-71
2022/07/08 02:18:31;;;;;;;3.15;1.83;;;15.10;99.90;;;;;;5007078;28;20045;-71
2022/07/08 02:21:03;;;;;;;4.60;1.60;;;15.10;99.90;;;;;;5021407;28;20045;-70
2022/07/08 02:23:35;;;;;;;4.13;1.75;;;15.00;99.90;;;;;;5019873;28;20115;-71
2022/07/08 02:26:07;;;;;;;3.55;1.80;;;15.00;99.90;;;;;;5001447;28;20038;-71
2022/07/08 02:28:39;;;;;;;3.58;1.55;;;15.00;99.90;;;;;;5019807;28;20038;-71
2022/07/08 02:31:10;;;;;;;3.95;1.45;;;14.90;99.90;;;;;;5029301;28;20099;-71
2022/07/08 02:33:42;;;;;;;5.32;1.98;;;14.90;99.90;;;;;;5012103;28;20056;-71
2022/07/08 02:36:14;;;;;;;4.95;1.67;;;15.00;99.90;;;;;;5021079;28;20497;-71
2022/07/08 02:38:45;;;;;;;3.75;1.60;;;14.90;99.90;;;;;;5025554;28;20044;-71
2022/07/08 02:41:17;;;;;;;5.70;2.15;;;14.90;99.90;;;;;;4989711;28;20497;-71
2022/07/08 02:43:49;;;;;;;4.43;1.85;;;14.90;99.90;;;;;;5023954;28;20081;-71
2022/07/08 02:46:21;;;;;;;3.83;1.33;;;14.90;99.90;;;;;;5015673;28;20058;-71
2022/07/08 02:48:53;;;;;;;2.35;1.58;;;14.80;99.90;;;;;;5018945;28;20406;-70
2022/07/08 02:51:25;;;;;;;3.28;1.50;;;14.80;99.90;;;;;;5028573;28;20041;-71
2022/07/08 02:53:57;;;;;;;3.25;1.70;;;14.90;99.90;;;;;;5021419;28;20077;-71
2022/07/08 02:56:24;;;;;;;6.45;1.48;;;14.90;99.90;;;;;;5024757;28;20807;-70
2022/07/08 02:58:56;;;;;;;6.80;2.17;;;14.80;99.90;;;;;;5025201;28;20041;-71
2022/07/08 03:01:27;;;;;;;5.90;2.17;;;14.80;99.90;;;;;;5023635;28;20088;-70
2022/07/08 03:03:59;;;;;;;3.28;1.48;;;14.70;99.90;;;;;;5003316;28;20406;-71
2022/07/08 03:06:31;;;;;;;3.42;1.40;;;14.80;99.90;;;;;;5001872;28;20071;-71
2022/07/08 03:09:03;;;;;;;4.40;1.30;;;14.80;99.90;;;;;;5002240;28;20406;-71
2022/07/08 03:11:35;;;;;;;3.15;1.45;;;14.80;99.90;;;;;;5026624;28;20053;-70
2022/07/08 03:14:06;;;;;;;3.08;1.42;;;14.80;99.90;;;;;;5026260;28;20052;-71
2022/07/08 03:16:38;;;;;;;5.38;1.98;;;14.80;99.90;;;;;;5017793;28;20132;-71
2022/07/08 03:19:10;;;;;;;7.55;1.75;;;14.70;99.90;;;;;;5041516;28;20080;-71
2022/07/08 03:21:41;;;;;;;3.40;1.63;;;14.70;99.90;;;;;;5040531;28;20108;-70
2022/07/08 03:24:13;;;;;;;5.00;1.70;;;14.70;99.90;;;;;;5004139;28;20047;-70
2022/07/08 03:26:45;;;;;;;2.78;1.45;;;14.60;99.90;;;;;;5019810;28;20033;-71
2022/07/08 03:29:17;;;;;;;2.70;1.27;;;14.50;99.90;;;;;;5020628;28;20049;-71
2022/07/08 03:31:48;;;;;;;4.13;1.60;;;14.50;99.90;;;;;;5013528;28;20046;-71
2022/07/08 03:34:15;;;;;;;6.00;1.67;;;14.50;99.90;;;;;;5017070;28;20045;-71
2022/07/08 03:36:47;;;;;;;4.25;1.50;;;14.50;99.90;;;;;;5021636;28;20046;-71
2022/07/08 03:39:19;;;;;;;4.85;1.67;;;14.50;99.90;;;;;;5025767;28;20042;-71
2022/07/08 03:41:50;;;;;;;4.53;1.70;;;14.50;99.90;;;;;;5022739;28;20042;-70
2022/07/08 03:44:22;;;;;;;2.63;1.30;;;14.60;99.90;;;;;;5023929;28;20048;-71
2022/07/08 03:46:54;;;;;;;3.97;1.42;;;14.50;99.90;;;;;;5019327;28;20053;-70
2022/07/08 03:49:26;;;;;;;5.07;1.55;;;14.50;99.90;;;;;;5020694;28;20137;-71
2022/07/08 03:51:57;;;;;;;5.55;1.58;;;14.50;99.90;;;;;;5013118;28;20050;-71
2022/07/08 03:54:25;;;;;;;5.18;2.17;;;14.50;99.90;;;;;;5005771;28;20759;-71
2022/07/08 03:56:57;;;;;;;4.65;1.58;;;14.60;99.90;;;;;;5016046;28;20045;-71
2022/07/08 03:59:29;;;;;;;3.75;1.45;;;14.50;99.90;;;;;;5007885;28;20065;-71
2022/07/08 04:02:01;;;;;;;5.70;1.63;;;14.50;99.90;;;;;;5021487;28;20510;-70
2022/07/08 04:04:33;;;;;;;4.65;1.42;;;14.50;99.90;;;;;;5016842;22;20042;-70
2022/07/08 04:07:04;;;;;;;7.03;1.50;;;14.50;99.90;;;;;;4988447;28;20043;-71
2022/07/08 04:09:36;;;;;;;7.57;1.70;;;14.60;99.90;;;;;;5012165;28;20494;-71
2022/07/08 04:12:09;;;;;;;4.90;2.15;;;14.60;99.90;;;;;;5008182;28;20046;-72
2022/07/08 04:14:40;;;;;;;5.43;1.60;;;14.60;99.90;;;;;;4988340;28;20517;-71
2022/07/08 04:17:12;;;;;;;3.00;1.77;;;14.60;99.90;;;;;;4991653;28;20046;-71
2022/07/08 04:19:44;;;;;;;5.95;2.20;;;14.60;99.90;;;;;;4992911;28;20038;-70
2022/07/08 04:22:16;;;;;;;6.78;1.83;;;14.50;99.90;;;;;;4991011;28;20061;-72
2022/07/08 04:24:47;;;;;;;4.82;1.65;;;14.50;99.90;;;;;;4997693;28;20470;-70
2022/07/08 04:27:19;;;;;;;7.75;2.67;;;14.60;99.90;;;;;;4999703;28;20026;-72
2022/07/08 04:29:51;;;;;;;10.48;3.28;;;14.50;99.90;;;;;;4993081;28;20051;-71
2022/07/08 04:32:22;;;;;;;9.93;2.92;;;14.50;99.90;;;;;;4990163;28;20066;-71
2022/07/08 04:34:58;;;;;;;9.60;3.10;;;14.50;99.90;;;;;;4990964;28;20053;-71
2022/07/08 04:37:30;;;;;;;10.98;3.42;;;14.50;99.90;;;;;;4992525;28;20045;-71
2022/07/08 04:39:56;;;;;;;8.90;3.15;;;14.50;99.90;;;;;;4991940;28;20482;-72
2022/07/08 04:42:28;;;;;;;7.25;3.33;;;14.50;99.90;;;;;;4991351;28;20133;-71
2022/07/08 04:45:00;;;;;;;8.98;2.75;;;14.50;99.90;;;;;;4990794;28;20065;-71
2022/07/08 04:47:32;;;;;;;12.85;4.78;;;14.60;99.90;;;;;;4991382;28;20057;-69
2022/07/08 04:50:04;;;;;;;8.65;2.60;;;14.50;99.90;;;;;;4990691;28;20078;-71
2022/07/08 04:52:35;;;;;;;8.32;2.20;;;14.50;99.90;;;;;;4987286;28;20064;-71
2022/07/08 04:55:08;;;;;;;8.80;2.47;;;14.50;99.90;;;;;;4987785;28;20050;-71
2022/07/08 04:57:40;;;;;;;9.63;3.00;;;14.40;99.90;;;;;;4990782;28;20050;-72
2022/07/08 05:00:12;;;;;;;11.77;3.42;;;14.40;99.90;;;;;;4990711;28;20506;-71
2022/07/08 05:02:44;;;;;;;9.07;2.88;;;14.40;99.90;;;;;;4991471;28;20046;-71
2022/07/08 05:05:16;;;;;;;9.52;3.10;;;14.40;99.90;;;;;;5007457;28;20052;-71
2022/07/08 05:07:42;;;;;;;10.90;3.40;;;14.40;99.90;;;;;;5000244;28;20121;-72
2022/07/08 05:10:16;;;;;;;10.38;2.83;;;14.40;99.90;;;;;;4989427;28;20700;-71
2022/07/08 05:12:47;;;;;;;8.15;1.60;;;14.40;99.90;;;;;;5008543;28;20049;-71
2022/07/08 05:15:20;;;;;;;7.53;2.03;;;14.50;99.90;;;;;;5008109;28;20065;-72
2022/07/08 05:17:55;;;;;;;5.57;1.88;;;14.50;99.90;;;;;;5008026;28;20049;-71
2022/07/08 05:20:27;;;;;;;8.35;2.42;;;14.50;99.90;;;;;;5009303;28;20060;-71
2022/07/08 05:22:58;;;;;;;4.75;1.85;;;14.50;99.90;;;;;;5007064;28;20520;-71
2022/07/08 05:25:25;;;;;;;5.32;1.67;;;14.50;99.90;;;;;;5007517;28;20044;-71
2022/07/08 05:27:57;;;;;;;5.03;1.48;;;14.50;99.90;;;;;;4986643;28;20042;-71
2022/07/08 05:30:29;;;;;;;4.60;1.40;;;14.50;99.90;;;;;;4992952;28;20050;-70
2022/07/08 05:33:00;;;;;;;6.20;1.95;;;14.50;99.90;;;;;;5011604;28;20050;-71
2022/07/08 05:35:32;;;;;;;4.60;1.60;;;14.50;99.90;;;;;;4970561;28;20037;-71
2022/07/08 05:38:04;;;;;;;6.60;1.42;;;14.50;99.90;;;;;;4995041;28;20056;-70
2022/07/08 05:40:31;;;;;;;5.63;1.30;;;14.60;99.90;;;;;;4994741;28;20058;-70
2022/07/08 05:43:03;;;;;;;3.20;1.20;;;14.60;99.90;;;;;;5011698;28;20050;-71
2022/07/08 05:45:35;;;;;;;4.15;1.52;;;14.60;99.90;;;;;;4991225;28;20470;-71
2022/07/08 05:48:06;;;;;;;8.85;1.45;;;14.50;99.90;;;;;;5011543;28;20038;-70
2022/07/08 05:50:38;;;;;;;5.97;1.40;;;14.50;99.90;;;;;;4996427;28;20038;-72
2022/07/08 05:53:10;;;;;;;9.00;2.20;;;14.50;99.90;;;;;;4994162;28;20042;-70
2022/07/08 05:55:45;;;;;;;3.53;1.00;;;14.40;99.90;;;;;;5011506;28;20112;-71
2022/07/08 05:58:17;;;;;;;5.63;1.83;;;14.50;99.90;;;;;;5012632;28;20551;-70
2022/07/08 06:00:48;;;;;;;7.57;2.05;;;14.50;99.90;;;;;;5010727;28;20116;-71
2022/07/08 06:03:20;;;;;;;5.88;1.88;;;14.40;99.90;;;;;;4993004;28;20050;-70
2022/07/08 06:05:52;;;;;;;4.05;1.55;;;14.50;99.90;;;;;;5010803;28;20049;-71
2022/07/08 06:08:24;;;;;;;7.55;1.45;;;14.50;99.90;;;;;;5013281;28;20044;-70
2022/07/08 06:10:56;;;;;;;4.68;1.65;;;14.50;99.90;;;;;;5011030;28;20505;-71
2022/07/08 06:13:28;;;;;;;6.03;1.30;;;14.50;99.90;;;;;;4996191;28;20048;-71
2022/07/08 06:16:00;;;;;;;5.18;1.50;;;14.50;99.90;;;;;;5013460;28;20409;-70
2022/07/08 06:18:33;;;;;;;5.70;1.77;;;14.40;99.90;;;;;;5013520;28;20052;-70
2022/07/08 06:21:05;;;;;;;5.90;1.52;;;14.40;99.90;;;;;;5010926;28;20049;-71
2022/07/08 06:23:37;;;;;;;5.53;1.50;;;14.50;99.90;;;;;;5010108;28;20619;-71
2022/07/08 06:26:08;;;;;;;6.93;1.95;;;14.50;99.90;;;;;;5013014;28;20038;-70
2022/07/08 06:28:40;;;;;;;5.82;1.73;;;14.50;99.90;;;;;;5012090;28;20425;-70
2022/07/08 06:31:12;;;;;;;5.97;1.63;;;14.50;99.90;;;;;;5014730;28;20067;-70
2022/07/08 06:33:44;;;;;;;7.05;1.48;;;14.60;99.90;;;;;;4994684;28;20038;-70
2022/07/08 06:36:10;;;;;;;3.10;1.02;;;14.70;99.90;;;;;;5013490;28;20046;-70
2022/07/08 06:38:42;;;;;;;5.72;1.48;;;14.70;99.90;;;;;;4997348;28;20061;-71
2022/07/08 06:41:14;;;;;;;8.18;1.60;;;14.70;99.90;;;;;;4997462;28;20038;-70
2022/07/08 06:43:46;;;;;;;6.05;1.75;;;14.70;99.90;;;;;;5013312;28;20705;-71
2022/07/08 06:46:16;;;;;;;8.32;1.58;;;14.80;99.90;;;;;;4996136;28;20038;-71
2022/07/08 06:48:48;;;;;;;6.22;2.20;;;14.90;99.90;;;;;;5011563;28;20034;-70
2022/07/08 06:51:20;;;;;;;5.53;1.90;;;15.00;99.90;;;;;;5015227;28;20049;-71
2022/07/08 06:56:42;;;;;;;3.38;1.67;;;15.20;99.90;;;;;;4997876;28;20042;-71
2022/07/08 06:59:14;;;;;;;2.75;1.25;;;15.10;99.90;;;;;;5014445;28;20038;-71
2022/07/08 07:01:45;;;;;;;6.40;1.70;;;15.20;99.90;;;;;;5004502;28;20042;-71
2022/07/08 07:04:17;;;;;;;4.60;1.73;;;15.30;99.90;;;;;;5001858;28;20048;-71
2022/07/08 07:06:49;;;;;;;4.22;1.25;;;15.30;99.90;;;;;;4989285;28;20048;-71
2022/07/08 07:09:21;;;;;;;3.90;1.70;;;15.30;99.90;;;;;;4997002;28;20046;-70
2022/07/08 07:11:53;;;;;;;6.57;1.67;;;15.30;99.90;;;;;;5014668;28;20101;-70
2022/07/08 07:14:25;;;;;;;2.42;1.38;;;15.40;99.90;;;;;;4995395;28;20506;-70
2022/07/08 07:16:56;;;;;;;7.45;1.45;;;15.40;99.90;;;;;;4998459;28;20116;-70
2022/07/08 07:19:28;;;;;;;7.35;1.63;;;15.60;99.90;;;;;;4998413;28;20038;-71
2022/07/08 07:22:00;;;;;;;6.13;1.98;;;15.70;99.90;;;;;;4992592;28;20047;-71
2022/07/08 07:24:32;;;;;;;8.90;2.42;;;15.80;99.90;;;;;;5003275;28;20048;-71
2022/07/08 07:27:04;;;;;;;5.82;1.30;;;15.90;99.90;;;;;;4995889;28;20035;-71
2022/07/08 07:29:36;;;;;;;3.95;1.45;;;16.00;99.90;;;;;;4996719;28;20046;-70
2022/07/08 07:32:08;;;;;;;5.15;1.50;;;15.90;99.90;;;;;;4996490;28;20529;-71
2022/07/08 07:34:40;;;;;;;4.38;1.58;;;15.90;99.90;;;;;;5012281;28;20436;-71
2022/07/08 07:37:07;;;;;;;6.38;1.50;;;16.00;99.90;;;;;;4994125;28;20064;-70
2022/07/08 07:39:39;;;;;;;7.43;1.88;;;16.10;99.90;;;;;;5010021;28;20042;-72
2022/07/08 07:42:06;;;;;;;6.93;1.60;;;16.00;99.90;;;;;;4988808;28;20037;-70
2022/07/08 07:44:38;;;;;;;3.40;1.77;;;16.10;99.90;;;;;;5009637;28;20048;-70
2022/07/08 07:47:09;;;;;;;5.63;1.67;;;16.10;99.90;;;;;;5010992;28;20030;-70
2022/07/08 07:49:41;;;;;;;4.70;1.60;;;16.20;99.90;;;;;;5013800;28;20052;-71
2022/07/08 07:52:13;;;;;;;4.43;1.70;;;16.30;99.90;;;;;;5013803;28;20050;-70
2022/07/08 07:54:45;;;;;;;5.65;1.77;;;16.40;99.90;;;;;;5003554;28;20038;-70
2022/07/08 07:57:16;;;;;;;7.38;2.00;;;16.40;99.90;;;;;;4996812;28;20471;-70
2022/07/08 07:59:48;;;;;;;8.15;2.15;;;16.40;99.90;;;;;;5012956;28;20037;-71
2022/07/08 08:02:20;;;;;;;8.30;2.63;;;16.40;99.90;;;;;;5013513;28;20128;-72
2022/07/08 08:04:51;;;;;;;4.60;1.83;;;16.40;99.90;;;;;;5012103;28;21179;-70
2022/07/08 08:07:23;;;;;;;5.30;1.60;;;16.30;99.90;;;;;;5006918;28;20057;-70
2022/07/08 08:09:50;;;;;;;5.40;1.92;;;16.30;99.90;;;;;;5011973;28;20046;-70
2022/07/08 08:12:22;;;;;;;6.05;2.30;;;16.30;99.90;;;;;;5013033;28;20541;-70
2022/07/08 08:14:53;;;;;;;4.78;1.95;;;16.30;99.90;;;;;;4991761;28;20051;-70
2022/07/08 08:17:25;;;;;;;6.80;2.05;;;16.30;99.90;;;;;;4996194;28;20057;-71
2022/07/08 08:19:57;;;;;;;4.22;2.08;;;16.20;99.90;;;;;;5005065;28;20046;-70
2022/07/08 08:22:29;;;;;;;4.20;2.35;;;16.20;99.90;;;;;;5021327;28;20129;-70
2022/07/08 08:25:02;;;;;;;4.68;1.88;;;16.30;99.90;;;;;;4999446;28;20044;-70
2022/07/08 08:27:39;;;;;;;6.88;1.63;;;16.20;99.90;;;;;;5013240;28;20038;-70
2022/07/08 08:30:11;;;;;;;3.97;1.60;;;16.40;99.90;;;;;;5013145;28;20096;-71
2022/07/08 08:32:43;;;;;;;4.60;1.70;;;16.60;99.90;;;;;;5012288;28;20041;-70
2022/07/08 08:35:15;;;;;;;3.78;1.73;;;16.60;99.90;;;;;;5008733;28;20049;-71
2022/07/08 08:37:41;;;;;;;6.20;1.80;;;16.80;99.90;;;;;;5018363;28;20037;-70
2022/07/08 08:40:14;;;;;;;5.07;1.80;;;16.90;99.90;;;;;;5012204;28;20127;-70
2022/07/08 08:42:45;;;;;;;4.32;1.50;;;17.00;99.90;;;;;;5012223;28;20045;-71
2022/07/08 08:45:17;;;;;;;3.17;1.48;;;17.10;99.90;;;;;;4994658;28;20045;-71
2022/07/08 08:47:52;;;;;;;7.65;2.30;;;17.20;99.90;;;;;;4995404;28;20069;-70
2022/07/08 08:53:16;;;;;;;3.65;1.80;;;17.20;99.90;;;;;;5012456;28;20068;-70
2022/07/08 08:55:50;;;;;;;3.33;1.50;;;17.30;99.90;;;;;;5011849;28;20049;-70
2022/07/08 08:58:21;;;;;;;;;;;17.20;99.90;;;;;;5012844;28;20041;-70
2022/07/08 09:00:53;;;;;;;3.17;1.60;;;17.30;99.90;;;;;;4991296;28;19921;-70
2022/07/08 09:03:25;;;;;;;4.85;1.60;;;17.30;99.90;;;;;;5005788;28;20069;-71
2022/07/08 09:05:57;;;;;;;6.05;1.63;;;17.20;99.90;;;;;;5011487;28;20163;-70
2022/07/08 09:08:29;;;;;;;5.10;1.67;;;17.20;99.90;;;;;;5011630;28;20583;-70
2022/07/08 09:11:01;;;;;;;3.22;1.50;;;17.20;99.90;;;;;;4992881;28;20061;-70
2022/07/08 09:13:33;;;;;;;5.90;1.40;;;17.40;99.90;;;;;;5011363;28;20514;-70
2022/07/08 09:16:04;;;;;;;7.25;2.53;;;17.70;99.90;;;;;;5010338;28;20038;-70
2022/07/08 09:18:39;;;;;;;6.40;1.60;;;17.70;99.90;;;;;;5012031;28;20049;-70
2022/07/08 09:21:12;;;;;;;2.60;1.38;;;17.70;99.90;;;;;;5012369;28;20042;-70
2022/07/08 09:23:43;;;;;;;7.30;1.75;;;17.80;99.90;;;;;;5009743;28;20030;-70
2022/07/08 09:26:16;;;;;;;4.50;1.10;;;17.80;99.90;;;;;;5008883;28;20133;-70
2022/07/08 09:28:49;;;;;;;4.80;1.70;;;17.80;99.90;;;;;;5008898;28;20054;-70
2022/07/08 09:31:21;;;;;;;5.78;1.80;;;17.70;99.90;;;;;;5010990;28;20052;-70
2022/07/08 09:33:54;;;;;;;3.00;1.27;;;17.70;99.90;;;;;;5011222;28;20038;-70
2022/07/08 09:36:20;;;;;;;3.43;1.47;;;17.60;99.90;;;;;;5010560;28;20046;-70
2022/07/08 09:38:52;;;;;;;4.65;1.55;;;17.50;99.90;;;;;;5011658;28;20050;-70
2022/07/08 09:41:24;;;;;;;4.32;1.60;;;17.40;99.90;;;;;;5007394;28;20064;-70
2022/07/08 09:43:56;;;;;;;4.88;1.50;;;17.40;99.90;;;;;;5010729;28;20034;-70
2022/07/08 09:46:36;;;;;;;2.55;1.23;;;17.50;99.90;;;;;;4994254;28;20501;-70
2022/07/08 09:49:25;;;;;;;3.33;1.35;;;17.70;99.90;;;;;;5012205;28;20044;-70
2022/07/08 09:51:57;;;;;;;4.63;1.55;;;17.80;99.90;;;;;;5011699;28;20046;-70
2022/07/08 09:54:29;;;;;;;4.63;1.58;;;17.80;99.90;;;;;;5010881;28;20391;-70
2022/07/08 09:57:02;;;;;;;7.13;1.50;;;17.80;99.90;;;;;;5010923;28;20030;-70
2022/07/08 09:59:35;;;;;;;2.97;1.30;;;17.90;99.90;;;;;;4993918;28;20046;-71
2022/07/08 10:02:07;;;;;;;3.78;1.50;;;18.10;99.90;;;;;;5011881;28;20038;-71
2022/07/08 10:04:39;;;;;;;4.93;1.65;;;18.20;99.90;;;;;;5009470;28;20065;-70
2022/07/08 10:07:10;;;;;;;3.50;1.30;;;18.30;99.90;;;;;;5012087;28;20052;-70
2022/07/08 10:09:42;;;;;;;2.88;1.23;;;18.40;99.90;;;;;;5012088;28;20080;-69
2022/07/08 10:12:14;;;;;;;5.43;1.98;;;18.50;99.60;;;;;;5011858;28;20133;-70
2022/07/08 10:14:46;;;;;;;4.18;1.42;;;18.60;99.90;;;;;;4993191;28;20046;-70
2022/07/08 10:17:20;;;;;;;7.00;2.35;;;18.80;99.90;;;;;;5007833;28;20052;-70
2022/07/08 10:19:53;;;;;;;5.65;1.50;;;18.80;99.70;;;;;;5014782;28;20394;-71
2022/07/08 10:22:51;;;;;;;4.88;1.90;;;18.90;98.60;;;;;;5016142;28;20109;-71
2022/07/08 10:25:24;;;;;;;2.70;1.30;;;18.90;98.40;;;;;;4988140;28;20050;-71
2022/07/08 10:28:10;;;;;;;5.22;1.80;;;18.90;97.70;;;;;;4981232;28;20487;-72
2022/07/08 10:30:59;;;;;;;4.40;1.30;;;18.90;97.80;;;;;;4968117;28;20051;-71
2022/07/08 10:33:31;;;;;;;2.10;1.27;;;18.90;98.80;;;;;;4974116;28;20051;-71
2022/07/08 10:36:06;;;;;;;4.07;1.45;;;19.00;98.10;;;;;;4951660;28;20047;-71
2022/07/08 10:38:39;;;;;;;2.83;1.20;;;18.90;97.50;;;;;;4954507;29;20062;-72
2022/07/08 10:41:13;;;;;;;4.93;1.50;;;18.80;97.20;;;;;;4971458;28;20494;-72
2022/07/08 10:43:52;;;;;;;4.00;1.45;;;18.80;97.30;;;;;;4961668;28;20039;-72
2022/07/08 10:46:27;;;;;;;5.70;1.70;;;18.80;97.00;;;;;;4966275;28;20066;-72
2022/07/08 10:49:00;;;;;;;4.38;1.50;;;18.90;96.80;;;;;;4969420;28;20038;-72
2022/07/08 10:51:32;;;;;;;;;;;19.20;97.20;;;;;;4966932;28;20042;-72
2022/07/08 10:54:05;;;;;;;3.13;1.20;;;19.30;95.30;;;;;;4981390;28;19922;-70
2022/07/08 10:56:53;;;;;;;4.97;1.55;;;19.20;95.70;;;;;;4958224;28;20039;-71
2022/07/08 10:59:25;;;;;;;3.88;1.80;;;18.90;96.40;;;;;;4979728;28;20523;-72
2022/07/08 11:02:13;;;;;;;7.75;2.05;;;18.90;97.30;;;;;;4960730;28;20039;-72
2022/07/08 11:04:47;;;;;;;6.32;1.80;;;18.90;97.60;;;;;;4953238;28;20043;-74
2022/07/08 11:07:28;;;;;;;3.28;1.20;;;18.90;97.10;;;;;;4936879;29;20519;-74
2022/07/08 11:10:08;;;;;;;3.92;1.52;;;19.00;96.90;;;;;;4958611;28;20519;-75
2022/07/08 11:12:41;;;;;;;2.70;1.40;;;19.20;96.30;;;;;;4941481;28;20515;-71
2022/07/08 11:15:12;;;;;;;4.97;1.88;;;19.40;96.20;;;;;;4966460;28;20065;-72
2022/07/08 11:17:46;;;;;;;3.15;1.40;;;19.50;95.00;;;;;;4956958;28;20047;-72
2022/07/08 11:20:18;;;;;;;7.43;1.58;;;19.60;95.20;;;;;;4982585;28;20047;-72
2022/07/08 11:22:51;;;;;;;7.35;2.10;;;19.50;95.00;;;;;;4964144;28;20074;-71
2022/07/08 11:25:23;;;;;;;3.50;1.30;;;19.20;95.10;;;;;;4929856;28;20043;-72
2022/07/08 11:27:55;;;;;;;4.97;1.50;;;19.10;95.90;;;;;;4959082;28;20039;-72
2022/07/08 11:30:33;;;;;;;2.92;1.33;;;19.20;96.00;;;;;;4955022;28;20054;-72
2022/07/08 11:33:05;;;;;;;6.00;1.58;;;19.40;95.80;;;;;;4959089;28;20051;-72
2022/07/08 11:35:40;;;;;;;10.85;2.33;;;19.80;95.20;;;;;;4962004;28;20419;-72
2022/07/08 11:38:11;;;;;;;4.75;1.70;;;20.00;94.60;;;;;;4981074;28;20049;-72
2022/07/08 11:40:44;;;;;;;3.15;1.42;;;20.20;93.00;;;;;;4939746;28;20419;-72
2022/07/08 11:43:21;;;;;;;4.13;1.48;;;20.40;93.70;;;;;;4947559;28;20030;-72
2022/07/08 11:45:47;;;;;;;6.55;1.58;;;20.70;94.00;;;;;;4965474;28;20060;-71
2022/07/08 11:48:14;;;;;;;3.33;1.40;;;20.80;93.30;;;;;;4968602;28;20051;-71
2022/07/08 11:50:51;;;;;;;2.85;1.58;;;21.00;93.40;;;;;;4971314;28;20057;-72
2022/07/08 11:53:22;;;;;;;5.28;1.83;;;21.10;92.70;;;;;;4970004;28;20508;-72
2022/07/08 11:55:49;;;;;;;7.35;1.60;;;21.30;92.90;;;;;;4973494;28;20050;-71
2022/07/08 11:58:22;;;;;;;4.13;1.90;;;21.50;91.50;;;;;;4967772;28;20078;-72
2022/07/08 12:00:55;;;;;;;6.20;1.85;;;21.40;91.00;;;;;;4971129;28;20047;-72
2022/07/08 12:03:27;;;;;;;3.35;1.35;;;21.40;91.20;;;;;;4968938;28;20114;-72
2022/07/08 12:05:55;;;;;;;5.32;1.70;;;21.30;91.10;;;;;;4964471;28;20403;-72
2022/07/08 12:08:22;;;;;;;7.68;1.55;;;21.40;91.70;;;;;;4982560;28;20122;-72
2022/07/08 12:11:14;;;;;;;3.90;1.73;;;21.50;91.60;;;;;;4955225;28;20065;-72
2022/07/08 12:13:48;;;;;;;4.60;1.42;;;21.30;90.60;;;;;;4943486;28;20050;-72
2022/07/08 12:16:34;;;;;;;2.30;1.50;;;21.40;90.20;;;;;;4979055;28;20054;-72
2022/07/08 12:19:07;;;;;;;3.47;1.42;;;21.40;90.40;;;;;;4973068;28;20484;-72
2022/07/08 12:21:38;;;;;;;4.53;1.37;;;21.20;90.60;;;;;;4969133;28;20038;-72
2022/07/08 12:24:12;;;;;;;5.57;2.42;;;21.10;91.40;;;;;;4953493;28;20071;-71
2022/07/08 12:26:58;;;;;;;2.78;1.27;;;21.30;90.70;;;;;;4959365;28;20038;-71
2022/07/08 12:29:39;;;;;;;7.10;1.50;;;21.30;90.20;;;;;;4972633;28;20055;-72
2022/07/08 12:32:11;;;;;;;5.25;1.70;;;21.20;90.70;;;;;;4951623;28;20043;-73
2022/07/08 12:34:50;;;;;;;5.00;1.45;;;21.20;89.80;;;;;;4966721;28;20070;-72
2022/07/08 12:37:19;;;;;;;2.83;1.65;;;21.00;90.30;;;;;;4968383;28;20105;-71
2022/07/08 12:39:51;;;;;;;3.53;1.77;;;20.90;91.00;;;;;;4950392;28;20074;-73
2022/07/08 12:42:25;;;;;;;4.00;1.52;;;21.00;91.30;;;;;;4967031;28;20031;-73
2022/07/08 12:44:57;;;;;;;5.10;1.42;;;21.20;90.40;;;;;;4949204;28;20031;-73
2022/07/08 12:47:23;;;;;;;4.75;1.48;;;21.50;90.10;;;;;;4955701;28;20046;-72
2022/07/08 12:49:56;;;;;;;4.00;1.70;;;21.80;90.30;;;;;;4955468;28;20038;-72
2022/07/08 12:52:28;;;;;;;4.50;1.63;;;22.10;89.60;;;;;;4960666;28;20492;-72
2022/07/08 12:54:59;;;;;;;4.50;1.42;;;22.00;88.00;;;;;;4953695;28;20043;-72
2022/07/08 12:57:31;;;;;;;7.50;1.50;;;21.90;88.70;;;;;;4950548;28;20039;-72
2022/07/08 13:00:03;;;;;;;2.60;1.35;;;22.10;89.20;;;;;;4957085;28;20446;-72
2022/07/08 13:02:35;;;;;;;3.43;1.60;;;22.40;89.60;;;;;;4981583;28;20043;-73
2022/07/08 13:05:07;;;;;;;5.30;1.90;;;22.50;87.00;;;;;;4961383;28;20039;-73
2022/07/08 13:07:40;;;;;;;6.57;1.52;;;22.80;87.40;;;;;;4971762;28;20139;-72
2022/07/08 13:10:11;;;;;;;4.33;1.20;;;22.60;84.80;;;;;;4974550;28;20054;-72
2022/07/08 13:12:38;;;;;;;5.40;1.27;;;22.50;85.10;;;;;;4980324;28;20563;-72
2022/07/08 13:15:10;;;;;;;5.05;1.42;;;22.50;85.90;;;;;;4971169;28;20043;-72
2022/07/08 13:17:42;;;;;;;4.97;1.58;;;22.70;84.80;;;;;;4960752;28;20163;-72
2022/07/08 13:20:13;;;;;;;3.20;1.27;;;22.70;84.80;;;;;;4964454;28;20039;-72
2022/07/08 13:22:45;;;;;;;3.42;1.30;;;22.90;84.20;;;;;;4955190;28;20039;-72